Time;durP1;ratioP1;P1;durP2;ratioP2;P2;SDS_P1;SDS_P2;PMS_P1;PMS_P2;Temp;Humidity;BMP_temperature;BMP_pressure;BME280_temperature;BME280_humidity;BME280_pressure;Samples;Min_cycle;Max_cycle;Signal;HPM_P1;HPM_P2
2022/10/10 00:01:13;;;;;;;9.55;3.25;;;;;;;10.28;100.00;95905.44;5006681;28;24431;-72
2022/10/10 00:03:40;;;;;;;4.28;2.90;;;;;;;10.30;100.00;95911.34;5009964;28;24981;-72
2022/10/10 00:06:07;;;;;;;5.28;3.08;;;;;;;10.34;100.00;95915.41;5008022;28;24794;-73
2022/10/10 00:08:34;;;;;;;6.10;3.20;;;;;;;10.39;100.00;95918.56;5011301;28;25030;-72
2022/10/10 00:11:00;;;;;;;5.60;3.33;;;;;;;10.39;100.00;95914.22;5006985;28;24444;-72
2022/10/10 00:13:27;;;;;;;5.40;3.22;;;;;;;10.43;100.00;95908.88;5010482;28;24439;-73
2022/10/10 00:15:54;;;;;;;3.57;3.00;;;;;;;10.46;100.00;95919.06;5005209;28;24829;-73
2022/10/10 00:18:21;;;;;;;4.32;3.05;;;;;;;10.49;100.00;95914.50;5010843;28;24439;-73
2022/10/10 00:20:49;;;;;;;3.78;2.97;;;;;;;10.49;100.00;95918.84;5007605;28;24429;-72
2022/10/10 00:23:16;;;;;;;4.95;3.28;;;;;;;10.51;100.00;95907.47;5010861;28;24432;-72
2022/10/10 00:25:42;;;;;;;4.40;3.30;;;;;;;10.52;100.00;95909.13;5007955;28;24444;-73
2022/10/10 00:28:09;;;;;;;6.22;3.30;;;;;;;10.51;100.00;95911.81;5010739;28;24444;-74
2022/10/10 00:30:35;;;;;;;4.55;2.97;;;;;;;10.53;100.00;95910.81;5002978;28;25013;-73
2022/10/10 00:33:03;;;;;;;3.72;2.70;;;;;;;10.54;100.00;95907.28;5010459;28;24432;-73
2022/10/10 00:35:30;;;;;;;6.55;3.08;;;;;;;10.57;100.00;95901.09;4995293;28;24975;-73
2022/10/10 00:37:56;;;;;;;4.55;3.08;;;;;;;10.58;100.00;95907.94;5010972;28;25016;-73
2022/10/10 00:40:24;;;;;;;4.93;3.25;;;;;;;10.60;100.00;95903.47;4995484;28;24429;-73
2022/10/10 00:42:50;;;;;;;4.45;3.15;;;;;;;10.63;100.00;95901.53;5010560;28;24433;-73
2022/10/10 00:45:23;;;;;;;5.35;3.22;;;;;;;10.64;100.00;95902.38;4996830;28;24429;-72
2022/10/10 00:47:52;;;;;;;6.72;3.60;;;;;;;10.65;100.00;95906.66;5004556;28;24448;-73
2022/10/10 00:50:22;;;;;;;4.63;2.97;;;;;;;10.64;100.00;95903.22;5003997;28;24435;-73
2022/10/10 00:52:49;;;;;;;4.32;3.38;;;;;;;10.66;100.00;95898.78;4999355;28;24956;-73
2022/10/10 00:55:17;;;;;;;3.78;3.00;;;;;;;10.60;100.00;95900.91;5002650;28;24436;-73
2022/10/10 00:57:44;;;;;;;5.00;2.90;;;;;;;10.55;100.00;95890.81;5010235;28;24507;-74
2022/10/10 01:00:11;;;;;;;3.85;3.17;;;;;;;10.53;100.00;95892.69;5005119;28;24437;-73
2022/10/10 01:02:38;;;;;;;4.90;3.03;;;;;;;10.51;100.00;95899.72;5007995;28;24487;-73
2022/10/10 01:05:05;;;;;;;4.30;2.77;;;;;;;10.47;100.00;95895.63;5005917;28;24524;-73
2022/10/10 01:07:33;;;;;;;5.57;2.92;;;;;;;10.48;100.00;95892.13;5001986;28;24431;-72
2022/10/10 01:10:05;;;;;;;5.53;3.03;;;;;;;10.46;100.00;95891.41;5005694;28;24869;-73
2022/10/10 01:12:42;;;;;;;5.65;3.28;;;;;;;10.37;100.00;95890.16;5009542;28;24438;-72
2022/10/10 01:15:17;;;;;;;4.95;3.15;;;;;;;10.43;100.00;95890.75;5006649;28;24883;-73
2022/10/10 01:17:50;;;;;;;4.97;3.03;;;;;;;10.46;100.00;95890.56;5000615;28;24448;-72
2022/10/10 01:20:50;;;;;;;3.42;3.00;;;;;;;10.44;100.00;95888.06;5005611;28;24428;-73
2022/10/10 01:23:51;;;;;;;4.43;3.20;;;;;;;10.47;100.00;95890.47;5008931;28;25060;-74
2022/10/10 01:26:49;;;;;;;4.72;3.20;;;;;;;10.48;100.00;95891.28;5006451;28;24425;-73
2022/10/10 01:29:22;;;;;;;4.05;3.00;;;;;;;10.44;100.00;95895.00;5003605;28;24467;-72
2022/10/10 01:31:54;;;;;;;4.43;2.90;;;;;;;10.39;100.00;95882.31;5003384;28;24633;-73
2022/10/10 01:34:30;;;;;;;5.03;2.60;;;;;;;10.38;100.00;95884.09;5005103;28;24803;-72
2022/10/10 01:37:03;;;;;;;4.85;2.47;;;;;;;10.37;100.00;95886.75;5009168;28;24511;-72
2022/10/10 01:39:35;;;;;;;4.80;2.75;;;;;;;10.32;100.00;95892.22;5006484;28;24835;-73
2022/10/10 01:42:09;;;;;;;4.43;2.40;;;;;;;10.33;100.00;95880.94;5008785;28;24440;-73
2022/10/10 01:44:36;;;;;;;3.88;2.45;;;;;;;10.30;100.00;95883.69;5009081;28;25000;-73
2022/10/10 01:47:03;;;;;;;4.20;2.80;;;;;;;10.31;100.00;95882.78;5004341;28;24440;-73
2022/10/10 01:49:33;;;;;;;5.65;2.88;;;;;;;10.28;100.00;95885.56;5006546;28;24448;-73
2022/10/10 01:52:13;;;;;;;4.35;3.05;;;;;;;10.24;100.00;95878.88;5004344;28;24439;-72
2022/10/10 01:54:50;;;;;;;4.03;2.80;;;;;;;10.28;100.00;95876.97;5001878;28;24439;-73
2022/10/10 01:57:24;;;;;;;4.35;2.95;;;;;;;10.20;100.00;95882.56;5004595;28;24456;-72
2022/10/10 02:00:12;;;;;;;4.97;3.00;;;;;;;10.14;100.00;95877.75;5000907;28;24989;-73
2022/10/10 02:02:49;;;;;;;6.18;2.90;;;;;;;10.08;100.00;95875.50;4997658;28;24749;-72
2022/10/10 02:05:24;;;;;;;4.57;2.78;;;;;;;10.09;100.00;95872.03;5006290;28;24439;-73
2022/10/10 02:07:55;;;;;;;4.57;2.87;;;;;;;10.09;100.00;95875.44;5005259;28;24425;-73
2022/10/10 02:10:25;;;;;;;4.45;2.88;;;;;;;10.04;100.00;95881.78;5007266;28;24420;-73
2022/10/10 02:12:54;;;;;;;3.92;2.70;;;;;;;10.06;100.00;95879.97;5000046;28;24436;-73
2022/10/10 02:15:26;;;;;;;5.63;3.13;;;;;;;10.03;100.00;95877.53;5005837;28;24806;-73
2022/10/10 02:17:54;;;;;;;3.00;2.70;;;;;;;10.06;100.00;95872.19;5006767;28;24455;-73
2022/10/10 02:20:25;;;;;;;5.20;3.10;;;;;;;10.03;100.00;95868.03;5011686;28;24473;-73
2022/10/10 02:22:54;;;;;;;6.35;2.90;;;;;;;10.07;100.00;95866.09;5009570;28;24435;-73
2022/10/10 02:25:23;;;;;;;9.35;3.58;;;;;;;9.99;100.00;95861.38;5006174;28;24479;-73
2022/10/10 02:27:57;;;;;;;7.72;3.30;;;;;;;10.08;100.00;95863.41;5009882;28;25286;-73
2022/10/10 02:30:26;;;;;;;6.32;3.15;;;;;;;10.04;100.00;95868.84;5004689;28;24992;-73
2022/10/10 02:32:58;;;;;;;4.32;3.00;;;;;;;10.00;100.00;95862.19;5004615;28;24435;-73
2022/10/10 02:35:30;;;;;;;4.73;2.93;;;;;;;10.04;100.00;95859.34;5011855;28;24810;-73
2022/10/10 02:37:59;;;;;;;8.93;2.72;;;;;;;10.05;100.00;95861.03;5013035;28;24459;-72
2022/10/10 02:40:28;;;;;;;5.57;3.53;;;;;;;10.09;100.00;95856.50;5012022;28;24993;-73
2022/10/10 02:42:59;;;;;;;11.68;3.08;;;;;;;10.14;100.00;95859.63;5009994;28;25001;-73
2022/10/10 02:45:31;;;;;;;4.00;2.97;;;;;;;10.13;100.00;95865.75;5012070;28;24451;-72
2022/10/10 02:47:58;;;;;;;5.05;2.75;;;;;;;10.22;100.00;95867.75;5003237;28;24802;-73
2022/10/10 02:50:26;;;;;;;4.70;3.47;;;;;;;10.21;100.00;95870.47;5010801;28;24435;-73
2022/10/10 02:52:52;;;;;;;5.80;2.95;;;;;;;10.25;100.00;95870.22;5009644;28;24981;-73
2022/10/10 02:55:19;;;;;;;6.25;3.00;;;;;;;10.24;100.00;95878.03;5006991;28;24443;-73
2022/10/10 02:57:45;;;;;;;5.53;2.88;;;;;;;10.14;100.00;95881.16;5010588;28;24475;-73
2022/10/10 03:00:13;;;;;;;5.10;2.90;;;;;;;10.13;100.00;95879.50;5006536;28;24432;-73
2022/10/10 03:02:41;;;;;;;4.45;2.80;;;;;;;10.17;100.00;95877.56;5010446;28;24429;-72
2022/10/10 03:05:08;;;;;;;8.88;2.80;;;;;;;10.18;100.00;95877.47;5006979;28;24443;-73
2022/10/10 03:07:36;;;;;;;7.13;3.13;;;;;;;10.20;100.00;95879.97;5012534;28;24436;-72
2022/10/10 03:10:03;;;;;;;3.17;2.42;;;;;;;10.22;100.00;95879.88;5006231;28;24437;-73
2022/10/10 03:12:30;;;;;;;7.75;2.90;;;;;;;10.18;100.00;95874.03;5010237;28;24835;-73
2022/10/10 03:14:56;;;;;;;5.53;3.30;;;;;;;10.22;100.00;95867.75;5007063;28;24433;-73
2022/10/10 03:17:23;;;;;;;3.80;2.75;;;;;;;10.23;100.00;95869.41;5002251;28;24448;-72
2022/10/10 03:19:50;;;;;;;3.83;3.00;;;;;;;10.25;100.00;95875.38;5006179;28;24444;-72
2022/10/10 03:22:17;;;;;;;5.47;2.90;;;;;;;10.20;100.00;95864.44;5010437;28;24973;-73
2022/10/10 03:24:43;;;;;;;5.88;2.95;;;;;;;10.24;100.00;95872.88;5006425;28;24439;-72
2022/10/10 03:27:10;;;;;;;4.60;3.20;;;;;;;10.31;100.00;95871.59;5010616;28;24829;-73
2022/10/10 03:29:36;;;;;;;4.53;3.13;;;;;;;10.22;100.00;95872.94;5000141;28;24440;-73
2022/10/10 03:32:03;;;;;;;5.35;2.88;;;;;;;10.21;100.00;95873.88;5010750;28;24428;-73
2022/10/10 03:34:30;;;;;;;5.32;3.17;;;;;;;10.21;100.00;95873.03;4994497;28;25569;-72
2022/10/10 03:36:58;;;;;;;6.05;3.10;;;;;;;10.16;100.00;95871.56;5010709;28;24487;-73
2022/10/10 03:39:24;;;;;;;18.02;3.28;;;;;;;10.11;100.00;95872.75;5007956;28;24836;-73
2022/10/10 03:41:51;;;;;;;5.00;3.37;;;;;;;10.16;100.00;95875.91;5008692;28;24431;-73
2022/10/10 03:44:17;;;;;;;3.58;2.85;;;;;;;10.11;100.00;95875.34;5010109;28;25264;-72
2022/10/10 03:46:44;;;;;;;5.40;3.10;;;;;;;10.11;100.00;95876.16;5008365;28;24440;-73
2022/10/10 03:49:10;;;;;;;3.97;2.72;;;;;;;10.13;100.00;95876.09;5004887;28;24436;-73
2022/10/10 03:51:37;;;;;;;8.37;3.00;;;;;;;10.13;100.00;95876.09;4998838;28;24440;-72
2022/10/10 03:54:05;;;;;;;4.73;3.10;;;;;;;10.16;100.00;95881.91;5011566;28;24436;-72
2022/10/10 03:56:31;;;;;;;4.38;3.30;;;;;;;10.14;100.00;95878.56;5006665;28;24428;-72
2022/10/10 03:58:59;;;;;;;4.93;3.00;;;;;;;10.23;100.00;95874.59;5027620;22;24456;-77
2022/10/10 04:01:26;;;;;;;6.68;3.22;;;;;;;10.17;100.00;95882.75;5025152;28;24447;-77
2022/10/10 04:03:52;;;;;;;3.55;3.00;;;;;;;10.21;100.00;95884.22;5029730;28;24960;-76
2022/10/10 04:06:19;;;;;;;4.15;2.90;;;;;;;10.23;100.00;95876.34;5026277;28;24448;-77
2022/10/10 04:08:46;;;;;;;4.50;3.00;;;;;;;10.27;100.00;95877.88;5031075;28;24428;-77
2022/10/10 04:11:13;;;;;;;3.90;3.00;;;;;;;10.24;100.00;95873.69;5021603;28;24435;-77
2022/10/10 04:13:40;;;;;;;4.38;3.28;;;;;;;10.26;100.00;95877.03;5021370;28;24432;-77
2022/10/10 04:16:07;;;;;;;6.38;3.22;;;;;;;10.25;100.00;95875.38;5023171;28;24781;-77
2022/10/10 04:18:33;;;;;;;3.50;2.97;;;;;;;10.28;100.00;95874.38;5021024;28;24497;-76
2022/10/10 04:21:02;;;;;;;5.68;3.17;;;;;;;10.25;100.00;95877.97;5022165;28;24435;-77
2022/10/10 04:23:28;;;;;;;6.40;3.22;;;;;;;10.22;100.00;95875.53;5020637;28;24924;-77
2022/10/10 04:25:55;;;;;;;3.67;2.95;;;;;;;10.27;100.00;95875.28;5022028;28;24809;-77
2022/10/10 04:28:23;;;;;;;4.90;2.80;;;;;;;10.28;100.00;95871.78;5017239;28;24447;-77
2022/10/10 04:30:50;;;;;;;7.57;3.28;;;;;;;10.24;100.00;95876.28;5009362;28;24452;-77
2022/10/10 04:33:16;;;;;;;5.05;3.00;;;;;;;10.19;100.00;95870.53;5006723;28;25000;-75
2022/10/10 04:35:43;;;;;;;7.07;3.38;;;;;;;10.16;100.00;95870.75;5005755;28;24436;-76
2022/10/10 04:38:09;;;;;;;8.40;3.47;;;;;;;10.16;100.00;95873.31;5017491;28;24514;-76
2022/10/10 04:40:36;;;;;;;4.55;3.58;;;;;;;10.15;100.00;95869.06;5008794;28;24431;-77
2022/10/10 04:43:03;;;;;;;23.65;4.13;;;;;;;10.09;100.00;95862.50;5021052;28;24428;-76
2022/10/10 04:45:31;;;;;;;5.25;3.88;;;;;;;10.14;100.00;95865.63;5020553;28;24468;-76
2022/10/10 04:47:58;;;;;;;4.75;3.35;;;;;;;10.16;100.00;95870.75;5021363;28;24447;-77
2022/10/10 04:50:25;;;;;;;5.03;3.33;;;;;;;10.16;100.00;95865.56;5019839;28;24443;-76
2022/10/10 04:52:51;;;;;;;5.93;3.90;;;;;;;10.13;100.00;95869.16;5021834;28;24442;-77
2022/10/10 04:55:18;;;;;;;5.40;3.78;;;;;;;10.11;100.00;95867.56;5018332;28;24996;-77
2022/10/10 04:57:44;;;;;;;7.60;4.07;;;;;;;10.09;100.00;95867.69;5021994;28;24456;-76
2022/10/10 05:00:12;;;;;;;6.65;4.60;;;;;;;10.11;100.00;95862.41;5018629;28;25020;-76
2022/10/10 05:02:39;;;;;;;6.40;4.10;;;;;;;10.14;100.00;95863.03;5021841;28;24960;-77
2022/10/10 05:05:07;;;;;;;7.20;3.70;;;;;;;10.20;100.00;95874.81;5019403;28;24436;-77
2022/10/10 05:07:34;;;;;;;6.55;3.60;;;;;;;10.20;100.00;95872.22;5021567;28;24436;-77
2022/10/10 05:10:01;;;;;;;7.13;3.80;;;;;;;10.23;100.00;95868.59;5019668;28;24436;-77
2022/10/10 05:12:27;;;;;;;4.63;2.78;;;;;;;10.25;100.00;95865.03;5026352;28;24428;-77
2022/10/10 05:14:54;;;;;;;3.15;2.45;;;;;;;10.28;100.00;95864.03;5017937;28;24440;-77
2022/10/10 05:17:20;;;;;;;4.60;3.13;;;;;;;10.25;100.00;95870.22;5018160;28;24428;-77
2022/10/10 05:19:48;;;;;;;4.45;3.00;;;;;;;10.27;100.00;95873.56;5017297;28;24992;-77
2022/10/10 05:22:15;;;;;;;5.88;3.20;;;;;;;10.26;100.00;95881.38;5018511;28;24443;-77
2022/10/10 05:24:41;;;;;;;5.90;3.70;;;;;;;10.28;100.00;95877.78;5021998;28;24448;-77
2022/10/10 05:27:08;;;;;;;3.90;3.40;;;;;;;10.27;100.00;95888.22;5025174;28;24435;-77
2022/10/10 05:29:34;;;;;;;7.55;5.05;;;;;;;10.22;100.00;95887.63;5011663;28;24439;-77
2022/10/10 05:32:01;;;;;;;4.97;3.08;;;;;;;10.06;100.00;95888.56;5023732;28;24438;-76
2022/10/10 05:34:28;;;;;;;4.38;3.75;;;;;;;10.01;100.00;95882.81;5018144;28;24440;-77
2022/10/10 05:36:56;;;;;;;4.10;3.00;;;;;;;10.01;100.00;95884.56;5015354;28;24436;-77
2022/10/10 05:39:23;;;;;;;6.10;3.90;;;;;;;10.00;100.00;95882.91;5018542;28;24456;-81
2022/10/10 05:41:49;;;;;;;8.02;6.15;;;;;;;10.04;100.00;95884.38;5004689;28;24440;-78
2022/10/10 05:44:16;;;;;;;7.63;5.22;;;;;;;10.12;100.00;95884.75;5019616;28;24528;-78
2022/10/10 05:46:42;;;;;;;5.68;4.60;;;;;;;10.14;100.00;95881.16;5022931;28;24455;-78
2022/10/10 05:49:09;;;;;;;4.22;3.65;;;;;;;10.17;100.00;95875.81;5021402;28;24804;-78
2022/10/10 05:51:35;;;;;;;4.80;3.30;;;;;;;10.20;100.00;95874.81;5023649;28;24432;-77
2022/10/10 05:54:04;;;;;;;6.75;3.45;;;;;;;10.16;100.00;95881.09;5021543;28;24994;-71
2022/10/10 05:56:31;;;;;;;6.63;3.35;;;;;;;9.99;100.00;95876.06;5020727;28;24972;-77
2022/10/10 05:58:57;;;;;;;5.38;3.55;;;;;;;9.85;100.00;95885.44;5022689;28;24501;-79
2022/10/10 06:01:24;;;;;;;7.88;4.20;;;;;;;9.80;100.00;95882.31;5020815;28;24993;-77
2022/10/10 06:03:54;;;;;;;7.47;3.97;;;;;;;9.88;100.00;95884.44;5022683;28;24424;-76
2022/10/10 06:06:21;;;;;;;5.30;3.57;;;;;;;9.76;100.00;95891.16;5011591;28;24433;-77
2022/10/10 06:08:48;;;;;;;6.38;3.50;;;;;;;9.79;100.00;95897.91;5025792;28;24431;-79
2022/10/10 06:11:18;;;;;;;4.63;2.95;;;;;;;9.82;100.00;95903.72;5017222;28;24516;-75
2022/10/10 06:13:46;;;;;;;3.83;2.95;;;;;;;9.84;100.00;95903.66;5016945;28;24471;-73
2022/10/10 06:16:12;;;;;;;3.90;3.00;;;;;;;9.90;100.00;95896.38;5017137;28;24433;-74
2022/10/10 06:18:39;;;;;;;4.57;2.72;;;;;;;9.94;100.00;95907.38;5022688;28;24463;-76
2022/10/10 06:21:07;;;;;;;5.72;2.85;;;;;;;9.91;100.00;95912.75;5017422;28;24448;-73
2022/10/10 06:23:34;;;;;;;4.50;2.90;;;;;;;9.96;100.00;95904.69;5023176;28;24981;-74
2022/10/10 06:26:00;;;;;;;3.53;2.90;;;;;;;10.00;100.00;95906.19;5017491;28;24440;-73
2022/10/10 06:28:28;;;;;;;4.75;2.88;;;;;;;10.11;100.00;95903.81;5023120;28;24542;-73
2022/10/10 06:30:59;;;;;;;4.93;3.40;;;;;;;10.16;100.00;95907.78;5016819;28;25004;-73
2022/10/10 06:33:26;;;;;;;5.78;3.10;;;;;;;10.24;100.00;95907.34;5023006;28;24432;-73
2022/10/10 06:35:53;;;;;;;6.57;3.65;;;;;;;10.27;100.00;95909.78;5017862;28;24447;-73
2022/10/10 06:38:20;;;;;;;5.17;3.10;;;;;;;10.31;100.00;95919.03;5019434;28;24463;-72
2022/10/10 06:40:46;;;;;;;6.15;3.17;;;;;;;10.33;100.00;95921.53;5021122;28;24431;-73
2022/10/10 06:43:15;;;;;;;4.00;3.35;;;;;;;10.32;100.00;95920.69;5020374;28;24439;-73
2022/10/10 06:45:45;;;;;;;4.68;3.50;;;;;;;10.41;100.00;95917.53;5020707;28;24439;-73
2022/10/10 06:48:13;;;;;;;10.85;3.70;;;;;;;10.35;100.00;95920.50;5020827;28;24435;-73
2022/10/10 06:50:40;;;;;;;4.72;3.13;;;;;;;10.35;100.00;95914.50;5020354;28;24446;-73
2022/10/10 06:53:07;;;;;;;9.05;3.47;;;;;;;10.35;100.00;95925.69;5020748;28;24423;-73
2022/10/10 06:55:33;;;;;;;7.65;3.30;;;;;;;10.38;100.00;95920.34;5019770;28;24432;-73
2022/10/10 06:58:00;;;;;;;3.78;2.72;;;;;;;10.50;100.00;95929.13;5020611;28;24431;-73
2022/10/10 07:00:26;;;;;;;4.88;3.00;;;;;;;10.61;100.00;95928.47;5020153;28;24850;-73
2022/10/10 07:02:54;;;;;;;6.97;3.55;;;;;;;10.63;100.00;95929.22;5021502;28;24438;-72
2022/10/10 07:05:20;;;;;;;3.20;2.67;;;;;;;10.64;100.00;95926.53;5008224;28;24436;-76
2022/10/10 07:07:47;;;;;;;7.53;3.70;;;;;;;10.56;100.00;95933.91;5021484;28;24975;-76
2022/10/10 07:10:15;;;;;;;8.93;4.28;;;;;;;10.68;100.00;95936.69;5020754;28;24443;-75
2022/10/10 07:12:42;;;;;;;8.00;3.70;;;;;;;10.83;100.00;95934.03;5024541;28;24440;-76
2022/10/10 07:15:09;;;;;;;8.05;3.20;;;;;;;10.87;100.00;95932.06;5022033;28;24996;-76
2022/10/10 07:17:37;;;;;;;4.78;2.97;;;;;;;10.90;100.00;95934.47;5019691;28;24436;-75
2022/10/10 07:20:05;;;;;;;5.40;3.33;;;;;;;10.97;100.00;95929.72;5021930;28;24466;-75
2022/10/10 07:22:32;;;;;;;6.15;3.33;;;;;;;11.00;100.00;95942.50;5023035;28;24431;-76
2022/10/10 07:24:58;;;;;;;6.07;3.00;;;;;;;11.09;100.00;95945.38;5023439;28;24908;-77
2022/10/10 07:27:25;;;;;;;5.75;3.60;;;;;;;11.14;100.00;95942.50;5022233;28;24441;-76
2022/10/10 07:29:51;;;;;;;5.05;3.03;;;;;;;11.17;100.00;95942.31;5022997;28;24439;-77
2022/10/10 07:32:18;;;;;;;7.55;3.03;;;;;;;11.06;100.00;95945.56;5021179;28;24504;-79
2022/10/10 07:34:45;;;;;;;4.80;2.72;;;;;;;11.13;100.00;95946.03;5011257;28;24439;-77
2022/10/10 07:37:12;;;;;;;4.05;2.80;;;;;;;11.09;100.00;95954.91;5022666;28;25020;-77
2022/10/10 07:39:39;;;;;;;4.05;3.08;;;;;;;11.15;100.00;95960.53;5024642;28;24467;-77
2022/10/10 07:42:06;;;;;;;10.77;2.90;;;;;;;11.15;100.00;95963.13;5023939;28;24443;-77
2022/10/10 07:44:32;;;;;;;3.85;2.70;;;;;;;11.20;100.00;95959.41;5024230;28;24427;-76
2022/10/10 07:46:59;;;;;;;5.17;2.93;;;;;;;11.29;100.00;95961.44;5026500;28;24447;-75
2022/10/10 07:49:25;;;;;;;5.40;2.97;;;;;;;11.22;100.00;95971.34;5020926;28;24439;-76
2022/10/10 07:51:52;;;;;;;7.18;3.50;;;;;;;11.15;100.00;95970.91;5023618;28;24433;-76
2022/10/10 07:54:19;;;;;;;6.28;3.15;;;;;;;11.19;100.00;95971.53;5020937;28;25024;-76
2022/10/10 07:56:46;;;;;;;7.43;3.63;;;;;;;11.17;100.00;95975.19;5025816;28;24439;-77
2022/10/10 07:59:13;;;;;;;6.43;3.80;;;;;;;11.20;100.00;95972.38;5011488;28;25009;-77
2022/10/10 08:01:39;;;;;;;7.63;3.47;;;;;;;11.27;100.00;95964.16;5024425;28;24535;-77
2022/10/10 08:04:06;;;;;;;6.75;3.58;;;;;;;11.36;100.00;95973.09;5018604;28;24451;-76
2022/10/10 08:06:32;;;;;;;5.50;3.03;;;;;;;11.46;100.00;95968.16;5019636;28;25007;-77
2022/10/10 08:08:59;;;;;;;5.78;3.72;;;;;;;11.47;100.00;95975.84;5026092;28;24435;-77
2022/10/10 08:11:27;;;;;;;6.95;4.03;;;;;;;11.46;100.00;95970.75;5020571;28;24992;-77
2022/10/10 08:13:53;;;;;;;3.58;2.75;;;;;;;11.47;100.00;95981.03;5024228;28;24435;-77
2022/10/10 08:16:20;;;;;;;4.07;2.95;;;;;;;11.49;100.00;95975.75;5021032;28;24428;-77
2022/10/10 08:18:46;;;;;;;4.93;3.25;;;;;;;11.34;100.00;95973.19;5023201;28;24448;-77
2022/10/10 08:21:14;;;;;;;5.78;3.15;;;;;;;11.25;100.00;95978.13;5021780;28;24515;-77
2022/10/10 08:23:41;;;;;;;5.60;3.28;;;;;;;11.23;100.00;95974.78;5014757;28;24424;-76
2022/10/10 08:26:11;;;;;;;4.97;3.08;;;;;;;11.30;100.00;95970.88;5022818;28;24510;-77
2022/10/10 08:28:40;;;;;;;3.42;2.83;;;;;;;11.44;100.00;95972.63;5020477;28;24428;-75
2022/10/10 08:31:07;;;;;;;5.03;3.10;;;;;;;11.51;100.00;95977.31;5014003;28;24451;-75
2022/10/10 08:33:34;;;;;;;6.07;2.88;;;;;;;11.56;100.00;95979.63;5018615;28;24438;-75
2022/10/10 08:36:04;;;;;;;9.15;5.82;;;;;;;11.74;100.00;95978.44;5010857;28;24424;-75
2022/10/10 08:38:31;;;;;;;13.13;7.78;;;;;;;11.74;100.00;95980.22;5020411;28;25006;-75
2022/10/10 08:41:00;;;;;;;14.55;7.28;;;;;;;11.88;100.00;95974.16;5021733;28;24439;-75
2022/10/10 08:43:31;;;;;;;12.23;8.60;;;;;;;11.80;100.00;95979.81;5020316;28;24435;-79
2022/10/10 08:46:06;;;;;;;9.45;6.90;;;;;;;11.86;100.00;95982.03;5022932;28;24999;-78
2022/10/10 08:48:33;;;;;;;8.43;5.07;;;;;;;11.93;100.00;95979.88;5013984;28;24432;-77
2022/10/10 08:51:05;;;;;;;9.40;6.38;;;;;;;12.02;100.00;95985.31;5021865;28;24440;-77
2022/10/10 08:53:39;;;;;;;8.75;4.93;;;;;;;12.04;100.00;95982.63;5020621;28;24439;-78
2022/10/10 08:56:06;;;;;;;8.65;5.07;;;;;;;12.42;100.00;95979.25;5022361;28;24562;-77
2022/10/10 08:58:38;;;;;;;7.28;4.32;;;;;;;12.61;100.00;95984.91;5020498;28;24430;-78
2022/10/10 09:01:13;;;;;;;5.13;3.30;;;;;;;13.09;100.00;95982.50;5023780;28;24436;-80
2022/10/10 09:03:45;;;;;;;5.35;3.83;;;;;;;13.22;100.00;95972.03;5019149;28;24432;-78
2022/10/10 09:06:25;;;;;;;5.55;3.50;;;;;;;13.36;100.00;95981.53;5022682;28;24432;-76
2022/10/10 09:09:01;;;;;;;10.02;3.50;;;;;;;13.60;100.00;95977.16;5022059;28;24431;-77
2022/10/10 09:11:37;;;;;;;9.43;3.00;;;;;;;13.62;100.00;95982.28;5021280;28;24439;-76
2022/10/10 09:14:16;;;;;;;7.53;2.67;;;;;;;13.68;100.00;95967.06;5021345;28;24436;-76
2022/10/10 09:16:52;;;;;;;3.55;2.60;;;;;;;14.08;100.00;95974.56;5020972;28;24436;-77
2022/10/10 09:19:32;;;;;;;7.10;2.75;;;;;;;14.33;100.00;95972.75;5020512;28;24475;-78
2022/10/10 09:22:04;;;;;;;5.80;2.75;;;;;;;14.92;100.00;95975.25;5020468;28;24443;-77
2022/10/10 09:24:36;;;;;;;5.10;3.10;;;;;;;15.07;100.00;95974.06;5018157;28;24508;-77
2022/10/10 09:27:05;;;;;;;5.88;3.30;;;;;;;15.42;100.00;95971.28;5023997;28;24478;-77
2022/10/10 09:29:37;;;;;;;4.10;2.58;;;;;;;15.45;100.00;95967.63;5022482;28;24436;-77
2022/10/10 09:32:14;;;;;;;4.75;2.80;;;;;;;15.72;100.00;95968.09;5016793;28;25040;-77
2022/10/10 09:34:45;;;;;;;6.93;2.65;;;;;;;15.66;100.00;95972.97;5013009;28;24990;-77
2022/10/10 09:37:16;;;;;;;5.53;2.92;;;;;;;15.85;100.00;95967.91;5017765;28;24976;-77
2022/10/10 09:39:48;;;;;;;6.05;2.85;;;;;;;15.95;100.00;95971.44;5017089;28;24829;-77
2022/10/10 09:42:19;;;;;;;5.57;2.65;;;;;;;16.05;100.00;95971.50;5024995;28;24431;-78
2022/10/10 09:44:45;;;;;;;3.70;2.30;;;;;;;15.94;100.00;95974.16;5017137;28;24965;-77
2022/10/10 09:47:16;;;;;;;3.97;2.58;;;;;;;15.85;100.00;95974.94;5024617;28;24439;-77
2022/10/10 09:49:45;;;;;;;6.67;2.20;;;;;;;16.25;100.00;95977.75;5016359;28;24902;-77
2022/10/10 09:52:25;;;;;;;5.00;2.47;;;;;;;16.57;100.00;95972.44;5024291;28;24526;-77
2022/10/10 09:54:55;;;;;;;4.37;2.07;;;;;;;16.88;100.00;95967.31;5011265;28;24439;-78
2022/10/10 09:57:28;;;;;;;3.77;2.00;;;;;;;17.20;100.00;95971.56;5027794;28;24436;-78
2022/10/10 09:59:54;;;;;;;7.15;2.40;;;;;;;17.06;100.00;95970.97;5013378;28;24456;-78
2022/10/10 10:02:25;;;;;;;6.10;2.30;;;;;;;16.84;100.00;95968.53;5026475;28;24431;-78
2022/10/10 10:04:52;;;;;;;4.13;2.13;;;;;;;17.12;100.00;95977.44;5012510;28;24511;-78
2022/10/10 10:07:30;;;;;;;8.07;2.40;;;;;;;17.54;100.00;95975.53;5025127;28;24439;-78
2022/10/10 10:09:59;;;;;;;4.90;2.00;;;;;;;17.59;100.00;95977.75;5020103;28;24441;-78
2022/10/10 10:12:29;;;;;;;7.45;2.30;;;;;;;17.49;100.00;95984.75;5020463;28;24442;-78
2022/10/10 10:15:01;;;;;;;5.93;1.80;;;;;;;17.77;100.00;95981.41;5011506;28;24996;-78
2022/10/10 10:17:29;;;;;;;4.95;2.38;;;;;;;18.10;100.00;95982.00;5026714;28;24451;-78
2022/10/10 10:19:56;;;;;;;4.80;2.47;;;;;;;18.12;100.00;95982.69;5022173;28;24463;-75
2022/10/10 10:22:33;;;;;;;5.47;2.30;;;;;;;18.28;100.00;95976.88;5019246;28;24428;-76
2022/10/10 10:25:32;;;;;;;8.00;2.37;;;;;;;18.52;100.00;95973.84;5018214;28;24984;-75
2022/10/10 10:28:20;;;;;;;7.30;2.42;;;;;;;18.24;100.00;95976.31;5015102;28;24439;-76
2022/10/10 10:30:47;;;;;;;7.68;2.38;;;;;;;18.29;100.00;95975.94;5010377;28;24433;-76
2022/10/10 10:33:23;;;;;;;9.63;2.22;;;;;;;18.64;100.00;95975.31;5011500;28;24440;-75
2022/10/10 10:35:58;;;;;;;10.15;2.70;;;;;;;18.63;100.00;95979.75;5016869;28;24451;-75
2022/10/10 10:38:35;;;;;;;6.72;2.42;;;;;;;18.95;100.00;95981.25;5019293;28;24447;-75
2022/10/10 10:41:06;;;;;;;5.53;2.22;;;;;;;18.86;100.00;95974.19;5023917;28;24464;-75
2022/10/10 10:43:47;;;;;;;7.25;2.45;;;;;;;18.92;100.00;95975.44;5023889;28;24458;-76
2022/10/10 10:46:27;;;;;;;8.23;2.63;;;;;;;18.94;100.00;95971.69;5022846;28;24442;-75
2022/10/10 10:49:01;;;;;;;8.35;2.92;;;;;;;18.67;100.00;95980.28;5018083;28;24483;-74
2022/10/10 10:51:46;;;;;;;8.63;2.70;;;;;;;18.76;100.00;95973.41;5021761;28;24448;-75
2022/10/10 10:54:29;;;;;;;7.05;2.67;;;;;;;18.85;100.00;95972.56;5015569;28;24432;-76
2022/10/10 10:57:05;;;;;;;5.68;2.63;;;;;;;18.93;100.00;95975.28;5024203;28;24432;-74
2022/10/10 10:59:40;;;;;;;9.38;3.00;;;;;;;18.99;100.00;95969.47;5021153;28;24464;-73
2022/10/10 11:02:28;;;;;;;9.55;3.00;;;;;;;19.06;98.96;95967.13;5024188;28;24458;-72
2022/10/10 11:05:06;;;;;;;11.25;3.05;;;;;;;19.08;94.98;95973.84;5018871;28;24446;-73
2022/10/10 11:07:39;;;;;;;13.20;3.10;;;;;;;18.93;92.30;95974.47;5021055;28;24445;-73
2022/10/10 11:10:17;;;;;;;13.68;4.75;;;;;;;18.83;95.96;95969.25;5018648;28;24973;-73
2022/10/10 11:12:56;;;;;;;9.57;3.65;;;;;;;18.92;90.97;95972.81;5023359;28;24997;-75
2022/10/10 11:15:28;;;;;;;28.52;3.88;;;;;;;18.89;87.16;95971.31;5026473;28;24432;-73
2022/10/10 11:18:00;;;;;;;22.50;3.97;;;;;;;18.99;71.96;95971.28;5020307;28;24436;-73
2022/10/10 11:20:32;;;;;;;25.02;4.63;;;;;;;19.07;68.18;95964.34;5025934;28;24888;-73
2022/10/10 11:23:05;;;;;;;22.67;3.97;;;;;;;19.19;65.53;95954.47;5013468;28;24425;-75
2022/10/10 11:25:36;;;;;;;17.20;3.70;;;;;;;19.33;68.34;95955.81;5026360;28;24428;-73
2022/10/10 11:28:10;;;;;;;17.90;3.97;;;;;;;19.32;66.02;95959.41;5020207;28;24447;-74
2022/10/10 11:30:44;;;;;;;20.95;3.97;;;;;;;19.39;66.28;95967.50;5019203;28;24440;-74
2022/10/10 11:33:16;;;;;;;19.60;3.78;;;;;;;19.52;65.37;95960.94;5016525;28;24431;-73
2022/10/10 11:35:46;;;;;;;21.55;3.95;;;;;;;19.50;63.62;95957.63;5019563;28;24433;-74